Time;durP1;ratioP1;P1;durP2;ratioP2;P2;SDS_P1;SDS_P2;PMS_P1;PMS_P2;Temp;Humidity;BMP_temperature;BMP_pressure;BME280_temperature;BME280_humidity;BME280_pressure;Samples;Min_cycle;Max_cycle;Signal;HPM_P1;HPM_P2
2021/03/08 00:02:23;;;;;;;42.97;21.42;;;3.60;99.90;;;;;;12593760;28;20051;-84
2021/03/08 00:08:25;;;;;;;41.78;20.98;;;3.60;99.90;;;;;;12621247;28;20122;-85
2021/03/08 00:14:26;;;;;;;41.33;21.77;;;3.60;99.90;;;;;;12606847;28;20553;-84
2021/03/08 00:20:28;;;;;;;45.85;22.00;;;3.60;99.90;;;;;;12598717;28;20082;-84
2021/03/08 00:26:29;;;;;;;41.38;21.77;;;3.60;99.90;;;;;;12597456;28;20099;-84
2021/03/08 00:32:48;;;;;;;45.78;22.55;;;3.60;99.90;;;;;;12607262;28;20071;-84
2021/03/08 00:38:49;;;;;;;38.58;22.35;;;3.50;99.90;;;;;;12597651;28;20048;-84
2021/03/08 00:44:51;;;;;;;43.75;21.75;;;3.50;99.90;;;;;;12605434;28;20123;-84
2021/03/08 00:50:53;;;;;;;44.97;22.67;;;3.50;99.90;;;;;;12606581;28;20178;-84
2021/03/08 00:56:54;;;;;;;48.58;23.48;;;3.40;99.90;;;;;;12606139;28;20044;-84
2021/03/08 01:03:09;;;;;;;45.00;22.60;;;3.40;99.90;;;;;;12612406;28;20036;-84
2021/03/08 01:09:10;;;;;;;44.60;22.90;;;3.30;99.90;;;;;;12613501;28;20044;-84
2021/03/08 01:15:12;;;;;;;48.00;23.02;;;3.30;99.90;;;;;;12632762;28;20491;-83
2021/03/08 01:21:13;;;;;;;45.75;23.00;;;3.30;99.90;;;;;;12622015;28;20475;-83
2021/03/08 01:27:15;;;;;;;45.20;23.10;;;3.30;99.90;;;;;;12611574;28;20040;-83
2021/03/08 01:33:22;;;;;;;56.97;25.38;;;3.40;99.90;;;;;;12620455;28;20055;-84
2021/03/08 01:39:24;;;;;;;48.63;23.67;;;3.40;99.90;;;;;;12613674;28;20488;-84
2021/03/08 01:45:26;;;;;;;51.05;23.95;;;3.30;99.90;;;;;;12606026;28;20093;-84
2021/03/08 01:51:27;;;;;;;46.85;23.83;;;3.30;99.90;;;;;;12611649;28;20040;-84
2021/03/08 01:57:29;;;;;;;48.88;24.23;;;3.30;99.90;;;;;;12610057;28;20220;-84
2021/03/08 02:03:30;;;;;;;51.65;24.90;;;3.30;99.90;;;;;;12609900;28;20552;-84
2021/03/08 02:09:31;;;;;;;43.63;23.48;;;3.30;99.90;;;;;;12611828;28;20606;-84
2021/03/08 02:15:46;;;;;;;47.08;22.45;;;3.40;99.90;;;;;;12611578;28;20069;-84
2021/03/08 02:21:56;;;;;;;46.38;22.45;;;3.40;99.90;;;;;;12610430;28;20096;-84
2021/03/08 02:28:19;;;;;;;35.00;16.50;;;3.40;99.90;;;;;;12620787;28;20123;-84
2021/03/08 02:34:29;;;;;;;32.58;14.18;;;3.50;99.90;;;;;;12619277;28;20082;-83
2021/03/08 02:40:40;;;;;;;28.70;9.10;;;3.30;99.90;;;;;;12616556;28;20067;-84
2021/03/08 02:46:45;;;;;;;19.48;5.72;;;2.90;99.90;;;;;;12619178;28;20522;-84
2021/03/08 02:52:54;;;;;;;21.30;4.75;;;2.60;99.90;;;;;;12608236;28;20586;-84
2021/03/08 02:58:58;;;;;;;19.88;4.28;;;2.50;99.90;;;;;;12631186;28;20111;-84
2021/03/08 03:05:06;;;;;;;19.55;3.60;;;2.60;99.90;;;;;;12610332;28;20041;-84
2021/03/08 03:11:09;;;;;;;15.88;3.35;;;2.70;99.90;;;;;;12608714;28;20070;-84
2021/03/08 03:17:14;;;;;;;17.98;3.35;;;2.60;99.90;;;;;;12612736;28;20058;-84
2021/03/08 03:23:16;;;;;;;18.70;3.40;;;2.40;99.90;;;;;;12605807;28;20048;-84
2021/03/08 03:29:19;;;;;;;18.55;4.80;;;2.40;99.90;;;;;;12609947;28;20503;-84
2021/03/08 03:35:24;;;;;;;26.23;4.53;;;2.40;99.90;;;;;;12608886;28;20659;-84
2021/03/08 03:41:26;;;;;;;15.85;3.30;;;2.30;99.90;;;;;;12601212;28;20044;-84
2021/03/08 03:47:28;;;;;;;16.45;3.05;;;2.40;99.90;;;;;;12608844;28;20571;-84
2021/03/08 03:53:29;;;;;;;15.02;3.47;;;2.30;99.90;;;;;;12600481;28;20052;-84
2021/03/08 03:59:46;;;;;;;20.50;3.75;;;2.30;99.90;;;;;;12609128;28;20094;-84
2021/03/08 04:05:51;;;;;;;21.45;3.60;;;2.20;99.90;;;;;;12601604;28;20040;-84
2021/03/08 04:11:55;;;;;;;20.27;3.47;;;2.30;99.90;;;;;;12613384;28;20047;-84
2021/03/08 04:17:57;;;;;;;17.42;3.33;;;2.20;99.90;;;;;;12610901;28;20185;-84
2021/03/08 04:23:59;;;;;;;16.02;3.63;;;2.20;99.90;;;;;;12611976;28;20052;-84
2021/03/08 04:30:02;;;;;;;13.93;3.50;;;2.20;99.90;;;;;;12611506;28;20138;-84
2021/03/08 04:36:05;;;;;;;23.02;4.05;;;2.10;99.90;;;;;;12610672;28;20142;-84
2021/03/08 04:42:08;;;;;;;18.40;3.50;;;2.20;99.90;;;;;;12611371;28;20163;-84
2021/03/08 04:48:10;;;;;;;18.10;4.00;;;2.20;99.90;;;;;;12643073;28;20186;-84
2021/03/08 04:54:12;;;;;;;14.77;4.50;;;2.20;99.90;;;;;;12607478;28;20070;-84
2021/03/08 05:00:14;;;;;;;16.50;4.93;;;2.30;99.90;;;;;;12608567;28;20104;-84
2021/03/08 05:06:17;;;;;;;19.17;4.88;;;2.10;99.90;;;;;;12612978;28;20072;-84
2021/03/08 05:12:21;;;;;;;18.55;4.45;;;2.10;99.90;;;;;;12626831;28;20040;-84
2021/03/08 05:18:23;;;;;;;19.52;5.97;;;2.20;99.90;;;;;;12613801;28;20044;-82
2021/03/08 05:24:25;;;;;;;17.23;5.57;;;2.10;99.90;;;;;;12612022;28;20071;-84
2021/03/08 05:30:27;;;;;;;19.30;6.25;;;2.10;99.90;;;;;;12616175;28;20085;-84
2021/03/08 05:36:48;;;;;;;23.08;6.22;;;2.00;99.90;;;;;;12627030;28;20040;-84
2021/03/08 05:42:57;;;;;;;27.38;6.78;;;2.00;99.90;;;;;;12613752;28;20244;-84
2021/03/08 05:49:35;;;;;;;27.15;7.50;;;2.00;99.90;;;;;;12634016;28;20396;-84
2021/03/08 05:55:43;;;;;;;17.65;6.40;;;1.90;99.90;;;;;;12614314;28;20042;-85
2021/03/08 06:02:17;;;;;;;24.23;7.60;;;2.00;99.90;;;;;;12603345;28;20485;-85
2021/03/08 06:08:45;;;;;;;22.10;8.10;;;2.10;99.90;;;;;;12573554;28;20052;-85
2021/03/08 06:14:49;;;;;;;21.13;7.72;;;2.00;99.90;;;;;;12620094;28;20158;-85
2021/03/08 06:20:55;;;;;;;29.75;9.20;;;2.20;99.90;;;;;;12611324;28;20052;-85
2021/03/08 06:27:01;;;;;;;25.55;9.77;;;2.00;99.90;;;;;;12618269;28;20227;-85
2021/03/08 06:33:02;;;;;;;23.85;8.63;;;1.80;99.90;;;;;;12611556;28;20075;-85
2021/03/08 06:39:04;;;;;;;22.05;8.80;;;1.90;99.90;;;;;;12602837;28;20040;-85
2021/03/08 06:45:07;;;;;;;25.75;9.02;;;2.00;99.90;;;;;;12611378;28;20090;-85
2021/03/08 06:51:11;;;;;;;22.10;8.55;;;2.10;99.90;;;;;;12610009;28;20039;-85
2021/03/08 06:57:26;;;;;;;20.08;8.48;;;2.20;99.90;;;;;;12602862;28;20048;-85
2021/03/08 07:03:34;;;;;;;26.77;9.10;;;2.30;99.90;;;;;;12600858;28;20804;-86
2021/03/08 07:09:48;;;;;;;20.00;7.47;;;2.90;99.90;;;;;;12599496;28;20668;-85
2021/03/08 07:15:56;;;;;;;17.70;7.03;;;2.90;99.90;;;;;;12610047;28;20181;-85
2021/03/08 07:21:58;;;;;;;17.13;7.32;;;3.00;99.90;;;;;;12587717;28;20044;-85
2021/03/08 07:28:00;;;;;;;20.63;8.07;;;3.10;99.90;;;;;;12583528;28;20100;-85
2021/03/08 07:34:03;;;;;;;22.20;7.93;;;3.20;99.90;;;;;;12613984;28;20121;-85
2021/03/08 07:40:04;;;;;;;22.85;8.13;;;3.20;99.90;;;;;;12627686;28;20597;-85
2021/03/08 07:46:24;;;;;;;19.48;7.78;;;3.10;99.90;;;;;;12608274;28;20151;-85
2021/03/08 07:52:32;;;;;;;18.05;8.20;;;2.80;99.90;;;;;;12607831;28;20072;-85
2021/03/08 07:58:36;;;;;;;18.40;7.97;;;2.60;99.90;;;;;;12605074;28;20519;-85
2021/03/08 08:04:37;;;;;;;19.73;7.22;;;2.80;99.90;;;;;;12605291;28;20061;-85
2021/03/08 08:10:39;;;;;;;20.20;7.20;;;3.00;99.90;;;;;;12604360;28;20113;-86
2021/03/08 08:16:43;;;;;;;17.42;6.90;;;2.80;99.90;;;;;;12611159;28;20044;-86
2021/03/08 08:22:53;;;;;;;17.88;7.13;;;3.20;99.90;;;;;;12617228;28;20065;-86
2021/03/08 08:28:55;;;;;;;23.13;7.28;;;2.90;99.90;;;;;;12602420;28;20048;-85
2021/03/08 08:34:57;;;;;;;21.65;7.47;;;2.90;99.90;;;;;;12611147;28;20155;-86
2021/03/08 08:41:20;;;;;;;20.10;6.43;;;3.00;99.90;;;;;;12610551;28;20039;-85
2021/03/08 08:47:32;;;;;;;24.60;8.23;;;3.50;99.90;;;;;;12613865;28;20066;-86
2021/03/08 08:53:38;;;;;;;23.15;8.40;;;3.40;99.90;;;;;;12607670;28;20044;-86
2021/03/08 08:59:48;;;;;;;19.83;8.38;;;3.40;99.90;;;;;;12607789;28;20086;-85
2021/03/08 09:05:50;;;;;;;21.90;10.02;;;3.20;99.90;;;;;;12614513;28;20040;-86
2021/03/08 09:12:00;;;;;;;20.58;11.55;;;4.30;99.90;;;;;;12600500;28;20161;-86
2021/03/08 09:18:03;;;;;;;29.48;11.15;;;4.10;99.90;;;;;;12608794;28;20083;-86
2021/03/08 09:24:29;;;;;;;21.27;9.52;;;4.30;99.90;;;;;;12607762;28;20094;-86
2021/03/08 09:30:50;;;;;;;21.17;9.10;;;3.70;99.90;;;;;;12605531;28;20044;-86
2021/03/08 09:36:54;;;;;;;18.75;8.80;;;3.90;99.90;;;;;;12628902;28;20050;-85
2021/03/08 09:42:57;;;;;;;22.27;8.88;;;4.40;99.90;;;;;;12621393;28;20043;-86
2021/03/08 09:49:04;;;;;;;21.73;7.13;;;4.90;99.90;;;;;;12603921;28;20095;-86
2021/03/08 09:55:08;;;;;;;13.00;6.85;;;4.80;99.90;;;;;;12602366;28;20059;-86
2021/03/08 10:01:22;;;;;;;15.57;6.63;;;5.20;99.90;;;;;;12604209;28;20131;-86
2021/03/08 10:07:24;;;;;;;14.65;6.55;;;5.50;99.90;;;;;;12596562;28;20562;-86
2021/03/08 10:13:26;;;;;;;15.07;6.93;;;5.70;99.90;;;;;;12598749;28;20048;-86
2021/03/08 10:19:27;;;;;;;19.05;7.18;;;6.10;99.90;;;;;;12597526;28;20127;-86
2021/03/08 10:25:32;;;;;;;20.92;7.63;;;6.30;99.90;;;;;;12606675;28;20044;-86
2021/03/08 10:31:33;;;;;;;22.88;7.75;;;6.10;99.90;;;;;;12606062;28;20036;-86
2021/03/08 10:37:38;;;;;;;22.23;8.43;;;6.10;99.90;;;;;;12602445;28;20056;-87
2021/03/08 10:43:43;;;;;;;23.93;8.97;;;5.00;99.90;;;;;;12605347;28;20138;-86
2021/03/08 10:49:48;;;;;;;16.33;6.93;;;5.70;99.90;;;;;;12609623;28;20059;-87
2021/03/08 10:55:51;;;;;;;17.63;7.97;;;6.20;99.90;;;;;;12602409;28;20133;-86
2021/03/08 11:02:07;;;;;;;15.95;7.00;;;6.60;99.90;;;;;;12600131;28;20051;-86
2021/03/08 11:08:13;;;;;;;17.70;6.38;;;7.40;99.90;;;;;;12603134;28;20044;-86
2021/03/08 11:14:14;;;;;;;17.35;6.97;;;7.00;99.90;;;;;;12601163;28;20573;-86
2021/03/08 11:20:19;;;;;;;16.95;7.28;;;5.80;99.90;;;;;;12600729;28;20076;-86
2021/03/08 11:26:21;;;;;;;12.18;5.15;;;5.80;99.90;;;;;;12622072;28;20618;-86
2021/03/08 11:32:24;;;;;;;6.50;2.95;;;6.50;99.90;;;;;;12612654;28;20416;-86
2021/03/08 11:38:49;;;;;;;8.85;3.05;;;6.60;99.90;;;;;;12622587;28;20055;-86
2021/03/08 11:44:52;;;;;;;7.57;3.45;;;6.40;99.90;;;;;;12598550;28;20037;-86
2021/03/08 11:50:55;;;;;;;7.25;2.88;;;6.70;99.90;;;;;;12618201;28;20126;-86
2021/03/08 11:56:56;;;;;;;8.82;2.45;;;7.00;99.90;;;;;;12597908;28;20049;-87
2021/03/08 12:02:58;;;;;;;8.27;2.88;;;7.60;99.90;;;;;;12597869;28;20051;-86
2021/03/08 12:09:00;;;;;;;7.22;3.00;;;7.30;99.90;;;;;;12601733;28;20150;-87
2021/03/08 12:15:02;;;;;;;5.45;2.55;;;7.80;99.90;;;;;;12597184;28;20499;-86
2021/03/08 12:21:04;;;;;;;7.38;2.85;;;8.10;99.90;;;;;;12573176;28;20040;-86
2021/03/08 12:27:06;;;;;;;5.72;2.42;;;8.50;99.90;;;;;;12598584;28;20053;-86
2021/03/08 12:33:07;;;;;;;9.25;2.53;;;8.00;99.90;;;;;;12617145;28;20445;-87
2021/03/08 12:39:09;;;;;;;7.03;2.20;;;7.60;99.90;;;;;;12583052;28;20134;-86
2021/03/08 12:45:11;;;;;;;5.65;1.95;;;7.90;99.90;;;;;;12592102;28;20314;-86
2021/03/08 12:51:12;;;;;;;4.88;2.00;;;8.00;99.90;;;;;;12599748;28;20134;-87
2021/03/08 12:57:14;;;;;;;5.72;2.10;;;7.80;99.90;;;;;;12597142;28;20177;-87
2021/03/08 13:03:15;;;;;;;7.00;2.20;;;8.20;99.90;;;;;;12590206;28;20514;-87
2021/03/08 13:09:17;;;;;;;7.35;2.50;;;7.90;99.90;;;;;;12601139;28;20056;-87
2021/03/08 13:15:20;;;;;;;7.70;2.30;;;8.50;99.90;;;;;;12609512;28;20119;-85
2021/03/08 13:21:21;;;;;;;5.88;2.25;;;8.10;99.90;;;;;;12607729;28;20054;-86
2021/03/08 13:27:23;;;;;;;4.47;2.05;;;8.00;99.90;;;;;;12610128;28;20146;-86
2021/03/08 13:33:24;;;;;;;5.63;2.28;;;8.10;99.90;;;;;;12615027;28;20055;-86
2021/03/08 13:39:26;;;;;;;6.25;2.42;;;7.30;99.90;;;;;;12606707;28;20075;-86
2021/03/08 13:45:28;;;;;;;5.72;2.30;;;7.60;99.90;;;;;;12605077;28;20136;-86
2021/03/08 13:51:29;;;;;;;4.00;1.90;;;7.60;99.90;;;;;;12604573;28;20040;-86
2021/03/08 13:57:31;;;;;;;5.15;2.22;;;7.70;99.90;;;;;;12604838;28;20060;-87
2021/03/08 14:03:32;;;;;;;5.40;2.03;;;7.90;99.90;;;;;;12609225;28;20040;-86
2021/03/08 14:09:34;;;;;;;7.22;2.40;;;7.90;99.90;;;;;;12607592;28;20378;-86
2021/03/08 14:15:36;;;;;;;8.50;2.20;;;7.70;99.90;;;;;;12622996;28;20432;-86
2021/03/08 14:21:37;;;;;;;5.47;2.47;;;7.30;99.90;;;;;;12610440;28;20294;-86
2021/03/08 14:27:38;;;;;;;7.30;2.50;;;7.20;99.90;;;;;;12651374;28;20040;-86
2021/03/08 14:33:40;;;;;;;9.25;2.38;;;6.80;99.90;;;;;;12656702;28;20058;-87
2021/03/08 14:39:42;;;;;;;5.93;2.30;;;6.60;99.90;;;;;;12632890;28;20063;-86
2021/03/08 14:45:43;;;;;;;7.00;2.17;;;7.00;99.90;;;;;;12620121;28;20068;-86
2021/03/08 14:51:45;;;;;;;9.60;2.35;;;7.40;99.90;;;;;;12606824;28;20047;-86
2021/03/08 14:57:46;;;;;;;6.80;2.10;;;7.70;99.90;;;;;;12604127;28;20035;-86
2021/03/08 15:03:47;;;;;;;6.45;2.40;;;7.20;99.90;;;;;;12603076;28;20241;-86
2021/03/08 15:09:50;;;;;;;6.95;2.85;;;7.00;99.90;;;;;;12621561;28;20087;-86
2021/03/08 15:15:51;;;;;;;6.47;2.42;;;7.60;99.90;;;;;;12615321;28;20044;-86
2021/03/08 15:21:53;;;;;;;8.98;2.20;;;7.80;99.90;;;;;;12593308;28;20082;-86
2021/03/08 15:27:54;;;;;;;5.82;2.33;;;7.70;99.90;;;;;;12598816;28;20139;-86
2021/03/08 15:33:55;;;;;;;8.95;2.60;;;7.50;99.90;;;;;;12606275;28;20412;-86
2021/03/08 15:39:57;;;;;;;7.32;2.67;;;7.50;99.90;;;;;;12607685;28;20044;-86
2021/03/08 15:45:58;;;;;;;5.90;2.50;;;7.70;99.90;;;;;;12604471;28;20078;-86
2021/03/08 15:52:00;;;;;;;6.05;2.40;;;7.50;99.90;;;;;;12596202;28;20325;-86
2021/03/08 15:58:01;;;;;;;6.25;2.53;;;7.30;99.90;;;;;;12600133;28;20087;-86
2021/03/08 16:04:03;;;;;;;6.93;2.45;;;7.00;99.90;;;;;;12595289;28;20047;-86
2021/03/08 16:10:05;;;;;;;4.85;2.35;;;6.80;99.90;;;;;;12592432;28;20112;-86
2021/03/08 16:16:07;;;;;;;5.55;2.28;;;6.50;99.90;;;;;;12598202;28;20040;-86
2021/03/08 16:22:08;;;;;;;8.98;2.60;;;6.30;99.90;;;;;;12595907;28;20480;-86
2021/03/08 16:28:10;;;;;;;7.85;3.00;;;5.90;99.90;;;;;;12600024;28;20132;-86
2021/03/08 16:34:11;;;;;;;8.73;2.65;;;6.00;99.90;;;;;;12594491;28;20044;-86
2021/03/08 16:40:13;;;;;;;5.90;1.90;;;5.80;99.90;;;;;;12611817;28;20126;-86
2021/03/08 16:46:14;;;;;;;9.07;2.10;;;5.80;99.90;;;;;;12633362;28;20055;-86
2021/03/08 16:52:16;;;;;;;5.18;2.13;;;5.60;99.90;;;;;;12615975;28;20047;-86
2021/03/08 16:58:17;;;;;;;6.97;2.13;;;5.10;99.90;;;;;;12612055;28;20147;-85
2021/03/08 17:04:18;;;;;;;5.43;2.20;;;4.80;99.90;;;;;;12600487;28;20190;-86
2021/03/08 17:10:20;;;;;;;8.38;2.55;;;4.60;99.90;;;;;;12608401;28;21525;-86
2021/03/08 17:16:23;;;;;;;6.10;2.00;;;4.50;99.90;;;;;;12605865;28;21699;-86
2021/03/08 17:22:25;;;;;;;7.30;2.40;;;4.40;99.90;;;;;;12616135;28;20101;-85
2021/03/08 17:28:26;;;;;;;6.85;2.95;;;4.30;99.90;;;;;;12606429;28;20036;-85
2021/03/08 17:34:27;;;;;;;5.18;2.42;;;4.30;99.90;;;;;;12610287;28;20166;-85
2021/03/08 17:40:29;;;;;;;7.32;2.70;;;4.20;99.90;;;;;;12603855;28;20040;-85
2021/03/08 17:46:30;;;;;;;6.50;2.53;;;4.00;99.90;;;;;;12602750;28;20099;-85
2021/03/08 17:52:31;;;;;;;6.10;2.70;;;4.00;99.90;;;;;;12616149;28;20703;-83
2021/03/08 17:58:33;;;;;;;7.28;3.25;;;3.90;99.90;;;;;;12605507;28;20049;-84
2021/03/08 18:04:34;;;;;;;8.23;2.90;;;3.90;99.90;;;;;;12604922;28;20472;-85
2021/03/08 18:10:36;;;;;;;7.45;2.92;;;3.90;99.90;;;;;;12606183;28;20067;-85
2021/03/08 18:16:42;;;;;;;8.68;3.75;;;3.90;99.90;;;;;;12606768;28;20385;-84
2021/03/08 18:22:43;;;;;;;10.23;4.10;;;3.80;99.90;;;;;;12605321;28;20043;-84
2021/03/08 18:28:44;;;;;;;8.30;3.17;;;3.80;99.90;;;;;;12594614;28;20048;-84
2021/03/08 18:34:46;;;;;;;9.40;3.30;;;3.70;99.90;;;;;;12605768;28;20112;-84
2021/03/08 18:40:47;;;;;;;8.15;3.17;;;3.60;99.90;;;;;;12595750;28;20044;-84
2021/03/08 18:47:01;;;;;;;10.38;3.65;;;3.50;99.90;;;;;;12597740;28;20073;-84
2021/03/08 18:53:03;;;;;;;11.23;3.67;;;3.60;99.90;;;;;;12603893;28;20048;-84
2021/03/08 18:59:05;;;;;;;8.93;3.40;;;3.60;99.90;;;;;;12598077;28;20048;-84
2021/03/08 19:05:07;;;;;;;5.25;2.70;;;3.60;99.90;;;;;;12586721;28;20036;-84
2021/03/08 19:11:09;;;;;;;8.20;3.50;;;3.60;99.90;;;;;;12597403;28;20234;-84
2021/03/08 19:17:23;;;;;;;6.90;3.20;;;3.50;99.90;;;;;;12602946;28;20051;-84
2021/03/08 19:23:25;;;;;;;6.10;2.63;;;3.60;99.90;;;;;;12612202;28;20116;-84
2021/03/08 19:29:26;;;;;;;12.95;3.50;;;3.60;99.90;;;;;;12613337;28;20181;-84
2021/03/08 19:35:28;;;;;;;8.10;3.15;;;3.50;99.90;;;;;;12610611;28;20062;-84
2021/03/08 19:41:31;;;;;;;8.65;3.20;;;3.40;99.90;;;;;;12629576;28;20093;-84
2021/03/08 19:47:45;;;;;;;8.13;3.35;;;3.30;99.90;;;;;;12603998;28;20159;-84
2021/03/08 19:53:48;;;;;;;6.68;3.53;;;3.40;99.90;;;;;;12602088;28;20044;-84
2021/03/08 19:59:49;;;;;;;8.52;4.20;;;3.40;99.90;;;;;;12593633;28;20143;-84
2021/03/08 20:05:50;;;;;;;12.15;4.80;;;3.40;99.90;;;;;;12596641;28;20096;-84
2021/03/08 20:11:51;;;;;;;10.90;5.22;;;3.50;99.90;;;;;;12598846;28;20039;-84
2021/03/08 20:18:06;;;;;;;14.00;5.63;;;3.60;99.90;;;;;;12624152;28;20496;-83
2021/03/08 20:24:08;;;;;;;14.68;5.90;;;3.50;99.90;;;;;;12608705;28;20036;-84
2021/03/08 20:30:11;;;;;;;14.05;6.85;;;3.60;99.90;;;;;;12589123;28;20052;-84
2021/03/08 20:36:12;;;;;;;16.13;6.15;;;3.60;99.90;;;;;;12603423;28;20115;-84
2021/03/08 20:42:13;;;;;;;14.70;6.47;;;3.50;99.90;;;;;;12601041;28;20066;-84
2021/03/08 20:48:28;;;;;;;;;;;3.50;99.90;;;;;;12610690;28;20063;-84
2021/03/08 20:54:30;;;;;;;19.77;7.93;;;3.50;99.90;;;;;;12608479;28;19931;-84
2021/03/08 21:00:31;;;;;;;18.00;8.88;;;3.50;99.90;;;;;;12623880;28;20828;-84
2021/03/08 21:06:33;;;;;;;23.40;10.00;;;3.50;99.90;;;;;;12620136;28;20471;-84
2021/03/08 21:12:35;;;;;;;26.45;10.80;;;3.50;99.90;;;;;;12604226;28;20123;-84
2021/03/08 21:18:50;;;;;;;27.98;12.20;;;3.40;99.90;;;;;;12604652;28;20040;-84
2021/03/08 21:24:52;;;;;;;30.00;13.55;;;3.40;99.90;;;;;;12615219;28;20201;-84
2021/03/08 21:31:01;;;;;;;34.53;15.40;;;3.40;99.90;;;;;;12629957;28;20077;-84
2021/03/08 21:37:05;;;;;;;35.10;17.13;;;3.40;99.90;;;;;;12615264;28;20104;-84
2021/03/08 21:43:06;;;;;;;38.58;17.95;;;3.40;99.90;;;;;;12613320;28;20047;-84
2021/03/08 21:49:20;;;;;;;43.50;18.63;;;3.40;99.90;;;;;;12605727;28;20067;-84
2021/03/08 21:55:22;;;;;;;40.63;19.10;;;3.30;99.90;;;;;;12611129;28;20044;-84
2021/03/08 22:01:27;;;;;;;45.13;19.88;;;3.40;99.90;;;;;;12580726;28;20094;-84
2021/03/08 22:07:29;;;;;;;49.30;21.20;;;3.30;99.90;;;;;;12608332;28;20104;-83
2021/03/08 22:13:30;;;;;;;52.00;21.27;;;3.30;99.90;;;;;;12604887;28;21046;-84
2021/03/08 22:19:36;;;;;;;49.58;22.75;;;3.30;99.90;;;;;;12607144;28;20052;-84
2021/03/08 22:25:38;;;;;;;54.28;23.70;;;3.30;99.90;;;;;;12608075;28;20063;-84
2021/03/08 22:31:41;;;;;;;51.50;21.40;;;3.40;99.90;;;;;;12610492;28;20497;-84
2021/03/08 22:37:42;;;;;;;49.97;21.13;;;3.30;99.90;;;;;;12608210;28;20056;-84
2021/03/08 22:43:43;;;;;;;47.20;21.40;;;3.20;99.90;;;;;;12605238;28;20127;-84
2021/03/08 22:50:02;;;;;;;47.80;21.13;;;3.20;99.90;;;;;;12617661;28;20051;-84
2021/03/08 22:56:04;;;;;;;51.80;22.55;;;3.20;99.90;;;;;;12613126;28;20455;-84
2021/03/08 23:02:05;;;;;;;52.70;22.05;;;3.20;99.90;;;;;;12616500;28;20101;-84
2021/03/08 23:08:06;;;;;;;49.53;22.77;;;3.20;99.90;;;;;;12609350;28;20146;-84
2021/03/08 23:14:08;;;;;;;59.22;23.45;;;3.20;99.90;;;;;;12609175;28;20052;-84
2021/03/08 23:20:23;;;;;;;53.80;25.02;;;3.20;99.90;;;;;;12614093;28;20052;-85
2021/03/08 23:26:24;;;;;;;54.88;23.05;;;3.20;99.90;;;;;;12615044;28;20048;-84
2021/03/08 23:32:26;;;;;;;54.88;23.15;;;3.20;99.90;;;;;;12612857;28;20081;-84
2021/03/08 23:38:27;;;;;;;49.80;22.50;;;3.20;99.90;;;;;;12604955;28;20161;-84
2021/03/08 23:44:29;;;;;;;47.50;21.88;;;3.20;99.90;;;;;;12591362;28;20092;-84
2021/03/08 23:50:44;;;;;;;45.55;21.13;;;3.20;99.90;;;;;;12603468;28;20070;-84
2021/03/08 23:56:45;;;;;;;47.10;20.52;;;3.20;99.90;;;;;;12604585;28;20127;-84
